Time;durP1;ratioP1;P1;durP2;ratioP2;P2;SDS_P1;SDS_P2;PMS_P1;PMS_P2;Temp;Humidity;BMP_temperature;BMP_pressure;BME280_temperature;BME280_humidity;BME280_pressure;Samples;Min_cycle;Max_cycle;Signal;HPM_P1;HPM_P2
2022/05/30 00:00:51;;;;;;;12.67;10.10;;;11.20;99.90;;;;;;10343624;28;20226;-81
2022/05/30 00:06:16;;;;;;;11.30;8.98;;;11.20;99.90;;;;;;10342964;28;20274;-80
2022/05/30 00:11:38;;;;;;;9.70;7.80;;;11.10;99.90;;;;;;10356062;28;20217;-79
2022/05/30 00:17:00;;;;;;;11.00;8.07;;;11.20;99.90;;;;;;10328764;28;20202;-78
2022/05/30 00:22:22;;;;;;;9.37;7.30;;;11.10;99.90;;;;;;10355746;28;20227;-79
2022/05/30 00:27:43;;;;;;;8.97;7.13;;;11.10;99.90;;;;;;10342223;28;20356;-79
2022/05/30 00:33:04;;;;;;;8.40;6.27;;;11.20;99.90;;;;;;10355646;28;20272;-79
2022/05/30 00:38:26;;;;;;;7.67;6.00;;;11.20;99.90;;;;;;10341827;28;20291;-81
2022/05/30 00:43:47;;;;;;;7.60;5.43;;;11.10;99.90;;;;;;10355302;28;20208;-81
2022/05/30 00:49:12;;;;;;;5.43;4.47;;;11.10;99.90;;;;;;10355528;28;20196;-80
2022/05/30 00:54:42;;;;;;;4.93;4.43;;;11.10;99.90;;;;;;10355507;28;20200;-80
2022/05/30 01:00:16;;;;;;;5.20;4.70;;;11.10;99.90;;;;;;10341118;28;20507;-81
2022/05/30 01:11:21;;;;;;;6.17;4.53;;;11.00;99.90;;;;;;10340046;28;20209;-81
2022/05/30 01:16:42;;;;;;;6.83;5.20;;;11.00;99.90;;;;;;10354362;28;20511;-81
2022/05/30 01:22:25;;;;;;;5.37;4.70;;;11.00;99.90;;;;;;10340587;28;20492;-81
2022/05/30 01:28:01;;;;;;;6.10;5.10;;;11.00;99.90;;;;;;10354617;28;20228;-81
2022/05/30 01:33:24;;;;;;;6.97;5.30;;;11.00;99.90;;;;;;10344408;28;20500;-81
2022/05/30 01:38:45;;;;;;;5.60;4.97;;;11.00;99.90;;;;;;10362680;28;20228;-81
2022/05/30 01:44:10;;;;;;;7.13;4.97;;;10.90;99.90;;;;;;10348159;28;20275;-80
2022/05/30 01:49:31;;;;;;;6.10;4.80;;;10.90;99.90;;;;;;10362339;28;20199;-81
2022/05/30 01:54:52;;;;;;;7.17;5.13;;;10.90;99.90;;;;;;10361699;28;20289;-81
2022/05/30 02:00:34;;;;;;;7.20;5.03;;;10.80;99.90;;;;;;10362570;28;20211;-81
2022/05/30 02:05:56;;;;;;;5.33;4.70;;;10.80;99.90;;;;;;10361939;28;20219;-81
2022/05/30 02:11:18;;;;;;;6.93;5.93;;;10.70;99.90;;;;;;10361130;28;20495;-81
2022/05/30 02:22:22;;;;;;;7.97;6.47;;;10.70;99.90;;;;;;10361227;28;20196;-80
2022/05/30 02:27:44;;;;;;;8.20;6.80;;;10.70;99.90;;;;;;10333539;28;20227;-80
2022/05/30 02:38:47;;;;;;;9.23;7.93;;;10.60;99.90;;;;;;10346321;28;20256;-79
2022/05/30 02:44:46;;;;;;;8.20;7.40;;;10.60;99.90;;;;;;10372511;28;20554;-82
2022/05/30 02:50:08;;;;;;;7.87;5.70;;;10.60;99.90;;;;;;10384230;28;20444;-81
2022/05/30 02:55:30;;;;;;;9.47;7.00;;;10.60;99.90;;;;;;10383791;28;20208;-81
2022/05/30 03:00:51;;;;;;;6.83;5.77;;;10.60;99.90;;;;;;10383384;28;20248;-80
2022/05/30 03:06:13;;;;;;;8.80;6.83;;;10.60;99.90;;;;;;10367045;28;20249;-81
2022/05/30 03:11:34;;;;;;;9.67;7.40;;;10.60;99.90;;;;;;10380694;28;20296;-79
2022/05/30 03:16:56;;;;;;;8.30;6.50;;;10.60;99.90;;;;;;10331216;28;20199;-80
2022/05/30 03:22:17;;;;;;;9.47;7.83;;;10.70;99.90;;;;;;10358937;28;20214;-81
2022/05/30 03:28:01;;;;;;;7.67;6.90;;;10.70;99.90;;;;;;10359162;28;20224;-81
2022/05/30 03:33:22;;;;;;;7.83;6.50;;;10.70;99.90;;;;;;10358449;28;20272;-81
2022/05/30 03:38:43;;;;;;;7.70;6.57;;;10.60;99.90;;;;;;10358202;28;20256;-81
2022/05/30 03:44:24;;;;;;;6.83;6.13;;;10.70;99.90;;;;;;10358482;28;20229;-81
2022/05/30 03:49:44;;;;;;;7.70;6.73;;;10.70;99.90;;;;;;10344300;28;20361;-80
2022/05/30 03:55:11;;;;;;;7.83;6.50;;;10.70;99.90;;;;;;10356523;28;20296;-80
2022/05/30 04:00:34;;;;;;;10.13;7.80;;;10.80;99.90;;;;;;10343698;28;20197;-81
2022/05/30 04:05:56;;;;;;;11.07;7.33;;;10.80;99.90;;;;;;10343821;28;20223;-81
2022/05/30 04:11:19;;;;;;;10.77;7.87;;;10.80;99.90;;;;;;10342074;28;20397;-81
2022/05/30 04:17:01;;;;;;;10.23;6.53;;;10.90;99.90;;;;;;10345301;28;20241;-80
2022/05/30 04:22:23;;;;;;;7.80;6.70;;;10.90;99.90;;;;;;10342897;28;20201;-78
2022/05/30 04:28:07;;;;;;;8.17;6.10;;;10.90;99.90;;;;;;10353276;28;20235;-81
2022/05/30 04:33:34;;;;;;;7.80;6.10;;;10.90;99.90;;;;;;10337335;28;20221;-79
2022/05/30 04:38:55;;;;;;;6.97;6.27;;;10.90;99.90;;;;;;10339155;28;20307;-80
2022/05/30 04:44:35;;;;;;;9.17;6.33;;;11.00;99.90;;;;;;10336544;28;20298;-80
2022/05/30 04:49:57;;;;;;;8.33;5.60;;;11.10;99.90;;;;;;10339116;28;20207;-80
2022/05/30 04:55:18;;;;;;;6.63;5.43;;;11.20;99.90;;;;;;10338383;28;20512;-78
2022/05/30 05:00:47;;;;;;;9.40;6.33;;;11.20;99.90;;;;;;10338675;28;20251;-81
2022/05/30 05:06:18;;;;;;;11.10;8.03;;;11.40;99.90;;;;;;10355288;28;20221;-81
2022/05/30 05:11:40;;;;;;;11.27;7.90;;;11.40;99.90;;;;;;10354226;28;20511;-81
2022/05/30 05:17:21;;;;;;;8.33;7.07;;;11.50;99.90;;;;;;10354644;28;20230;-82
2022/05/30 05:22:42;;;;;;;8.37;6.57;;;11.60;99.90;;;;;;10354486;28;20191;-81
2022/05/30 05:28:05;;;;;;;7.40;6.27;;;11.60;99.90;;;;;;10326802;28;20298;-80
2022/05/30 05:33:26;;;;;;;9.00;7.00;;;11.70;99.90;;;;;;10340915;28;20201;-80
2022/05/30 05:38:49;;;;;;;10.73;7.77;;;11.60;99.90;;;;;;10353996;28;20256;-80
2022/05/30 05:44:42;;;;;;;13.10;9.37;;;11.70;99.90;;;;;;10344306;28;20224;-80
2022/05/30 05:50:04;;;;;;;18.13;10.07;;;11.70;99.90;;;;;;10326789;28;20271;-80
2022/05/30 05:55:26;;;;;;;13.87;8.40;;;11.80;99.90;;;;;;10340169;28;20221;-80
2022/05/30 06:00:49;;;;;;;11.17;7.20;;;11.80;99.90;;;;;;10326977;28;20210;-80
2022/05/30 06:06:11;;;;;;;9.77;6.40;;;11.80;99.90;;;;;;10326204;28;20228;-80
2022/05/30 06:11:44;;;;;;;9.30;6.63;;;11.90;99.90;;;;;;10339485;28;20208;-81
2022/05/30 06:17:05;;;;;;;11.83;7.93;;;11.90;99.90;;;;;;10339943;28;20225;-80
2022/05/30 06:22:27;;;;;;;8.17;6.90;;;11.90;99.90;;;;;;10346762;28;20215;-80
2022/05/30 06:27:50;;;;;;;9.40;7.60;;;12.00;99.90;;;;;;10347040;28;20233;-79
2022/05/30 06:33:29;;;;;;;7.80;6.78;;;12.10;99.90;;;;;;10360607;28;20197;-79
2022/05/30 06:38:58;;;;;;;11.80;7.73;;;12.10;99.90;;;;;;10346376;28;20245;-82
2022/05/30 06:44:25;;;;;;;29.63;15.30;;;12.20;99.90;;;;;;10360194;28;20227;-80
2022/05/30 06:50:05;;;;;;;14.17;9.23;;;12.30;99.90;;;;;;10360630;28;20204;-81
2022/05/30 06:55:26;;;;;;;9.87;7.27;;;12.40;99.90;;;;;;10359481;28;20195;-79
2022/05/30 07:00:48;;;;;;;10.50;8.20;;;12.60;99.90;;;;;;10359181;28;20521;-79
2022/05/30 07:06:31;;;;;;;8.32;6.72;;;12.70;99.90;;;;;;10358728;28;20578;-80
2022/05/30 07:12:10;;;;;;;9.98;7.00;;;12.80;99.90;;;;;;10358276;28;20212;-79
2022/05/30 07:17:32;;;;;;;9.45;7.47;;;12.90;99.90;;;;;;10344302;28;20436;-79
2022/05/30 07:22:54;;;;;;;8.48;6.68;;;13.00;99.90;;;;;;10344752;28;20202;-78
2022/05/30 07:28:34;;;;;;;7.13;5.38;;;13.10;99.90;;;;;;10345035;28;20234;-85
2022/05/30 07:34:14;;;;;;;7.78;5.32;;;13.10;99.90;;;;;;10324954;28;20288;-80
2022/05/30 07:39:54;;;;;;;8.15;5.90;;;13.30;99.90;;;;;;10348736;28;20561;-84
2022/05/30 07:45:36;;;;;;;17.23;7.30;;;13.50;99.90;;;;;;10321955;28;20231;-80
2022/05/30 07:51:15;;;;;;;8.55;6.25;;;13.70;99.90;;;;;;10307528;28;20289;-81
2022/05/30 07:56:59;;;;;;;12.10;8.00;;;14.00;99.90;;;;;;10201146;29;20502;-81
2022/05/30 08:02:21;;;;;;;10.02;7.13;;;14.10;99.90;;;;;;10225094;29;20214;-81
2022/05/30 08:07:44;;;;;;;10.05;8.85;;;14.40;99.90;;;;;;10195655;29;20252;-80
2022/05/30 08:13:23;;;;;;;14.52;8.02;;;14.90;99.90;;;;;;10223852;29;20256;-82
2022/05/30 08:18:54;;;;;;;17.52;10.65;;;16.20;99.90;;;;;;10174958;29;20220;-82
2022/05/30 08:24:17;;;;;;;8.55;5.70;;;16.90;99.90;;;;;;10159032;29;20462;-84
2022/05/30 08:29:48;;;;;;;8.07;5.70;;;17.40;99.90;;;;;;10172650;29;20208;-81
2022/05/30 08:35:15;;;;;;;14.98;8.43;;;17.40;99.90;;;;;;10349618;28;20197;-82
2022/05/30 08:46:57;;;;;;;4.72;3.10;;;17.20;99.90;;;;;;10336057;28;20426;-85
2022/05/30 08:52:59;;;;;;;3.72;3.00;;;17.70;99.90;;;;;;10325105;28;20218;-87
2022/05/30 08:59:00;;;;;;;3.85;2.75;;;18.40;99.90;;;;;;10304087;28;20264;-82
2022/05/30 09:04:28;;;;;;;4.95;3.05;;;19.00;99.40;;;;;;10328573;28;20780;-83
2022/05/30 09:09:55;;;;;;;3.33;2.08;;;19.20;97.30;;;;;;10342796;28;20233;-83
2022/05/30 09:15:28;;;;;;;3.22;2.28;;;19.40;97.30;;;;;;10297463;28;20540;-82
2022/05/30 09:20:54;;;;;;;12.27;9.32;;;19.60;93.40;;;;;;10303097;28;20586;-83
2022/05/30 09:26:41;;;;;;;3.47;2.88;;;20.00;92.90;;;;;;10300545;28;20308;-84
2022/05/30 09:32:37;;;;;;;4.25;2.90;;;20.20;81.10;;;;;;10300468;28;20214;-84
2022/05/30 09:38:20;;;;;;;6.70;2.85;;;20.50;87.20;;;;;;10297469;28;20513;-83
2022/05/30 09:44:26;;;;;;;3.63;2.17;;;20.20;83.70;;;;;;10331379;28;20218;-84
2022/05/30 09:50:18;;;;;;;3.00;2.40;;;19.70;84.60;;;;;;10349008;28;20194;-80
2022/05/30 09:55:51;;;;;;;2.95;2.50;;;20.10;83.70;;;;;;10340388;28;20224;-85
2022/05/30 10:01:25;;;;;;;6.00;3.00;;;20.70;81.30;;;;;;10342940;28;20241;-86
2022/05/30 10:07:13;;;;;;;2.50;2.20;;;21.30;60.80;;;;;;10328557;28;20237;-82
2022/05/30 10:12:53;;;;;;;4.93;2.35;;;22.10;56.50;;;;;;10326809;28;20214;-84
2022/05/30 10:18:44;;;;;;;5.43;2.95;;;21.50;60.00;;;;;;10342786;28;20205;-82
2022/05/30 10:30:36;;;;;;;3.85;2.58;;;20.20;91.80;;;;;;10356050;28;20212;-80
2022/05/30 10:36:35;;;;;;;3.85;2.15;;;20.60;75.20;;;;;;10354800;28;20245;-80
2022/05/30 10:42:05;;;;;;;3.38;2.10;;;20.90;89.20;;;;;;10354934;28;20196;-82
2022/05/30 10:47:38;;;;;;;2.95;2.10;;;21.60;68.10;;;;;;10354826;28;20225;-79
2022/05/30 10:53:05;;;;;;;2.75;2.03;;;22.40;52.30;;;;;;10324976;28;20221;-79
2022/05/30 10:58:57;;;;;;;6.82;3.83;;;;;;;;;;10353425;28;20210;-79
2022/05/30 11:04:39;;;;;;;8.43;4.85;;;;;;;;;;10326422;28;20304;-82
2022/05/30 11:10:23;;;;;;;8.85;4.35;;;20.90;96.90;;;;;;10352592;28;20208;-82
2022/05/30 11:15:57;;;;;;;7.22;3.97;;;19.90;79.50;;;;;;10339215;28;20221;-82
2022/05/30 11:22:03;;;;;;;4.00;2.90;;;19.50;91.60;;;;;;10354157;28;20198;-82
2022/05/30 11:27:35;;;;;;;2.83;2.30;;;19.90;82.10;;;;;;10352694;28;20451;-82
2022/05/30 11:33:00;;;;;;;2.53;2.33;;;19.50;90.00;;;;;;10337447;28;20198;-82
2022/05/30 11:39:07;;;;;;;4.60;2.50;;;19.20;90.60;;;;;;10349597;28;20308;-82
2022/05/30 11:44:53;;;;;;;3.95;2.20;;;19.00;90.90;;;;;;10336607;28;20367;-82
2022/05/30 11:51:05;;;;;;;2.45;2.10;;;19.40;87.50;;;;;;10337691;28;20663;-84
2022/05/30 11:56:50;;;;;;;9.95;2.85;;;20.60;62.10;;;;;;10356742;28;20209;-83
2022/05/30 12:02:35;;;;;;;2.58;2.05;;;21.50;54.50;;;;;;10335572;28;20554;-83
2022/05/30 12:08:28;;;;;;;2.67;2.15;;;22.00;48.90;;;;;;10375173;28;20245;-82
2022/05/30 12:14:25;;;;;;;2.10;1.88;;;21.50;33.00;;;;;;10324544;28;20201;-82
2022/05/30 12:25:35;;;;;;;4.47;2.42;;;19.80;57.00;;;;;;10356422;28;20239;-83
2022/05/30 12:30:59;;;;;;;1.88;1.65;;;19.00;94.80;;;;;;10351187;28;20214;-84
2022/05/30 12:36:23;;;;;;;4.43;1.92;;;18.30;95.40;;;;;;10313539;28;20250;-85
2022/05/30 12:42:07;;;;;;;2.30;2.10;;;18.00;97.40;;;;;;10287758;28;20252;-79
2022/05/30 12:47:32;;;;;;;5.10;2.50;;;17.60;3.80;;;;;;10336294;28;20240;-84
2022/05/30 12:53:03;;;;;;;4.55;2.72;;;17.30;1.00;;;;;;10336380;28;20364;-89
2022/05/30 12:58:33;;;;;;;4.82;2.42;;;16.60;60.00;;;;;;10335044;28;20497;-85
2022/05/30 13:04:22;;;;;;;3.97;2.00;;;15.90;1.00;;;;;;10336266;28;20222;-88
2022/05/30 13:09:45;;;;;;;6.82;3.10;;;15.00;99.90;;;;;;10349383;28;20234;-84
2022/05/30 13:15:15;;;;;;;3.67;1.95;;;14.40;12.90;;;;;;10322642;28;20203;-80
2022/05/30 13:21:04;;;;;;;2.75;1.98;;;14.10;34.60;;;;;;10335646;28;20206;-87
2022/05/30 13:26:32;;;;;;;5.20;3.33;;;13.80;53.70;;;;;;10329156;28;20224;-87
2022/05/30 13:31:53;;;;;;;5.93;2.83;;;13.60;59.90;;;;;;10350290;28;20200;-85
2022/05/30 13:37:22;;;;;;;3.90;3.20;;;13.40;95.80;;;;;;10320078;28;20274;-82
2022/05/30 13:42:56;;;;;;;3.33;3.03;;;13.40;99.90;;;;;;10306974;28;20207;-85
2022/05/30 13:48:18;;;;;;;16.50;8.20;;;13.50;99.90;;;;;;10349122;28;20231;-83
2022/05/30 13:53:49;;;;;;;14.35;7.53;;;13.60;99.90;;;;;;10335192;28;20208;-80
2022/05/30 13:59:25;;;;;;;8.07;5.83;;;13.80;99.90;;;;;;10334368;28;20484;-84
2022/05/30 14:05:01;;;;;;;12.02;7.25;;;13.90;99.90;;;;;;10333921;28;20201;-85
2022/05/30 14:10:25;;;;;;;10.13;5.03;;;13.80;99.90;;;;;;10334599;28;20289;-89
2022/05/30 14:16:26;;;;;;;6.63;5.50;;;13.90;99.90;;;;;;10323986;28;20243;-86
2022/05/30 14:21:54;;;;;;;6.60;5.90;;;13.90;99.90;;;;;;10336498;28;20410;-83
2022/05/30 14:27:20;;;;;;;7.97;4.85;;;14.10;99.90;;;;;;10309814;28;20411;-88
2022/05/30 14:32:41;;;;;;;5.28;3.90;;;13.90;94.20;;;;;;10349606;28;20197;-84
2022/05/30 14:38:08;;;;;;;6.15;4.25;;;13.70;99.90;;;;;;10335675;28;20245;-90
2022/05/30 14:43:54;;;;;;;5.32;3.78;;;13.60;99.90;;;;;;10343303;28;20197;-82
2022/05/30 14:49:45;;;;;;;7.30;5.27;;;13.50;99.90;;;;;;10327308;28;20260;-82
2022/05/30 14:55:40;;;;;;;5.50;4.90;;;13.30;98.30;;;;;;10341428;28;20245;-86
2022/05/30 15:01:03;;;;;;;13.77;8.57;;;13.20;95.80;;;;;;10356683;28;20228;-85
2022/05/30 15:06:41;;;;;;;8.98;4.22;;;13.50;99.90;;;;;;10327052;28;20239;-84
2022/05/30 15:12:02;;;;;;;4.57;3.67;;;13.50;99.90;;;;;;10340796;28;20225;-83
2022/05/30 15:17:23;;;;;;;4.17;2.80;;;13.40;77.50;;;;;;10357640;28;20196;-84
2022/05/30 15:22:46;;;;;;;3.33;2.38;;;13.50;53.50;;;;;;10331093;28;20201;-80
2022/05/30 15:28:07;;;;;;;2.58;1.65;;;13.80;64.40;;;;;;10343903;28;20452;-80
2022/05/30 15:33:29;;;;;;;5.82;2.50;;;14.00;99.90;;;;;;10358466;28;20209;-80
2022/05/30 15:38:51;;;;;;;5.13;3.78;;;14.10;99.90;;;;;;10342380;28;20238;-80
2022/05/30 15:44:18;;;;;;;18.95;13.15;;;14.20;94.00;;;;;;10340983;28;20271;-81
2022/05/30 15:49:44;;;;;;;8.00;5.20;;;14.30;83.70;;;;;;10340937;28;20242;-80
2022/05/30 16:00:53;;;;;;;3.67;2.33;;;14.30;99.90;;;;;;10343305;28;20389;-81
2022/05/30 16:06:14;;;;;;;5.95;2.67;;;14.20;99.40;;;;;;10356711;28;20269;-80
2022/05/30 16:11:37;;;;;;;5.95;4.75;;;14.00;83.10;;;;;;10328463;28;20202;-79
2022/05/30 16:17:00;;;;;;;17.65;9.73;;;14.00;82.10;;;;;;10341826;28;20237;-80
2022/05/30 16:22:33;;;;;;;21.55;11.80;;;13.90;99.90;;;;;;10355542;28;20197;-80
2022/05/30 16:27:57;;;;;;;24.35;12.85;;;13.90;99.90;;;;;;10340561;28;20278;-80
2022/05/30 16:33:19;;;;;;;9.38;5.65;;;14.00;89.40;;;;;;10352380;28;20195;-80
2022/05/30 16:38:41;;;;;;;15.60;9.07;;;14.10;99.90;;;;;;10338609;28;20266;-80
2022/05/30 16:44:03;;;;;;;4.45;3.25;;;14.20;99.90;;;;;;10339599;28;20447;-80
2022/05/30 16:49:28;;;;;;;37.75;17.48;;;14.20;99.90;;;;;;10342205;28;20226;-80
2022/05/30 16:54:50;;;;;;;25.50;10.57;;;14.00;99.90;;;;;;10341506;28;20203;-82
2022/05/30 17:00:12;;;;;;;5.65;3.58;;;13.90;98.10;;;;;;10327685;28;20201;-79
2022/05/30 17:05:35;;;;;;;28.30;12.82;;;13.90;65.20;;;;;;10354666;28;20216;-80
2022/05/30 17:10:56;;;;;;;30.98;21.08;;;13.90;22.50;;;;;;10354742;28;20199;-79
2022/05/30 17:16:30;;;;;;;14.48;10.68;;;13.90;26.20;;;;;;10354757;28;20201;-80
2022/05/30 17:21:51;;;;;;;6.65;3.80;;;13.70;15.90;;;;;;10354702;28;20201;-79
2022/05/30 17:32:58;;;;;;;27.67;17.25;;;13.50;86.70;;;;;;10340887;28;20249;-80
2022/05/30 17:38:19;;;;;;;8.20;5.78;;;13.40;99.90;;;;;;10340554;28;20233;-81
2022/05/30 17:43:40;;;;;;;7.43;4.78;;;13.30;99.90;;;;;;10340513;28;20201;-79
2022/05/30 17:49:19;;;;;;;9.32;5.22;;;13.20;99.90;;;;;;10340426;28;20229;-79
2022/05/30 17:54:42;;;;;;;6.60;4.28;;;13.20;99.90;;;;;;10354956;28;20206;-79
2022/05/30 18:00:07;;;;;;;8.23;4.18;;;13.20;99.90;;;;;;10354804;28;20246;-81
2022/05/30 18:05:29;;;;;;;5.80;3.30;;;13.20;99.90;;;;;;10354062;28;20511;-82
2022/05/30 18:11:01;;;;;;;4.88;2.78;;;13.20;99.90;;;;;;10339424;28;20284;-80
2022/05/30 18:16:38;;;;;;;9.57;6.45;;;13.00;99.90;;;;;;10360064;28;20281;-82
2022/05/30 18:22:49;;;;;;;14.82;8.45;;;13.00;99.90;;;;;;10350353;28;20197;-79
2022/05/30 18:28:15;;;;;;;10.80;6.65;;;12.90;99.90;;;;;;10362237;28;20241;-80
2022/05/30 18:33:46;;;;;;;9.23;5.25;;;12.80;99.90;;;;;;10334091;28;20252;-79
2022/05/30 18:39:22;;;;;;;12.77;8.07;;;12.80;99.90;;;;;;10361226;28;20256;-79
2022/05/30 18:45:06;;;;;;;12.50;6.20;;;12.70;99.90;;;;;;10360387;28;20504;-81
2022/05/30 18:50:28;;;;;;;5.75;4.45;;;12.60;99.90;;;;;;10346408;28;20233;-80
2022/05/30 18:55:59;;;;;;;3.50;2.72;;;12.60;99.90;;;;;;10359551;28;20405;-79
2022/05/30 19:01:21;;;;;;;6.95;5.07;;;12.60;99.90;;;;;;10359491;28;20427;-79
2022/05/30 19:06:43;;;;;;;14.05;8.60;;;12.60;99.90;;;;;;10360290;28;20266;-80
2022/05/30 19:12:13;;;;;;;19.52;9.43;;;12.50;99.90;;;;;;10358845;28;20227;-80
2022/05/30 19:17:34;;;;;;;12.70;7.43;;;12.50;99.90;;;;;;10359093;28;20197;-80
2022/05/30 19:22:57;;;;;;;7.13;4.95;;;12.40;99.90;;;;;;10344838;28;20280;-79
2022/05/30 19:28:26;;;;;;;5.18;3.75;;;12.40;99.90;;;;;;10358147;28;20232;-80
2022/05/30 19:33:47;;;;;;;5.53;3.55;;;12.40;99.90;;;;;;10344885;28;20205;-79
2022/05/30 19:39:09;;;;;;;5.97;4.78;;;12.50;99.90;;;;;;10344482;28;20258;-80
2022/05/30 19:44:31;;;;;;;12.27;7.75;;;12.30;99.90;;;;;;10359240;28;20201;-80
2022/05/30 19:49:52;;;;;;;19.33;13.57;;;12.20;99.90;;;;;;10357975;28;20532;-81
2022/05/30 19:55:15;;;;;;;35.50;21.35;;;12.10;99.90;;;;;;10358203;28;20211;-81
2022/05/30 20:00:37;;;;;;;48.30;35.53;;;12.00;99.90;;;;;;10343718;28;20437;-83
2022/05/30 20:06:00;;;;;;;46.15;29.55;;;11.90;99.90;;;;;;10357140;28;20197;-83
2022/05/30 20:11:23;;;;;;;26.13;17.90;;;11.80;99.90;;;;;;10356562;28;20490;-79
2022/05/30 20:16:46;;;;;;;13.13;9.75;;;11.80;99.90;;;;;;10356557;28;20243;-81
2022/05/30 20:22:08;;;;;;;8.98;6.47;;;11.80;99.90;;;;;;10356381;28;20206;-81
2022/05/30 20:27:30;;;;;;;6.90;5.50;;;11.70;99.90;;;;;;10342487;28;20438;-82
2022/05/30 20:32:51;;;;;;;8.97;7.07;;;11.70;99.90;;;;;;10356010;28;20201;-82
2022/05/30 20:38:13;;;;;;;14.43;9.17;;;11.60;99.90;;;;;;10341519;28;20311;-81
2022/05/30 20:43:34;;;;;;;19.83;10.87;;;11.50;99.90;;;;;;10342049;28;20414;-81
2022/05/30 20:48:55;;;;;;;17.90;8.67;;;11.50;99.90;;;;;;10342134;28;20228;-80
2022/05/30 20:54:16;;;;;;;8.93;5.33;;;11.50;99.90;;;;;;10355277;28;20205;-81
2022/05/30 20:59:39;;;;;;;8.07;5.10;;;11.40;99.90;;;;;;10342442;28;20274;-80
2022/05/30 21:05:00;;;;;;;9.03;5.60;;;11.40;99.90;;;;;;10342429;28;20192;-82
2022/05/30 21:10:24;;;;;;;6.93;5.40;;;11.30;99.90;;;;;;10341853;28;20539;-81
2022/05/30 21:15:45;;;;;;;6.87;4.97;;;11.20;99.90;;;;;;10328471;28;20199;-80
2022/05/30 21:21:09;;;;;;;8.63;4.80;;;11.20;99.90;;;;;;10354890;28;20246;-79
2022/05/30 21:26:31;;;;;;;5.93;4.30;;;11.10;99.90;;;;;;10341092;28;20358;-83
2022/05/30 21:32:04;;;;;;;5.43;4.17;;;11.00;99.90;;;;;;10354399;28;20215;-79
2022/05/30 21:37:25;;;;;;;6.20;4.40;;;11.00;99.90;;;;;;10340199;28;20232;-82
2022/05/30 21:42:46;;;;;;;7.53;4.90;;;11.00;99.90;;;;;;10326697;28;20238;-81
2022/05/30 21:48:08;;;;;;;5.83;4.27;;;10.80;99.90;;;;;;10342222;28;20306;-80
2022/05/30 21:53:30;;;;;;;9.00;7.37;;;;;;;;;;10362285;28;20196;-83
2022/05/30 21:58:56;;;;;;;18.13;14.17;;;10.70;99.90;;;;;;10362325;28;20202;-79
2022/05/30 22:04:18;;;;;;;13.63;11.47;;;10.70;99.90;;;;;;10361587;28;20210;-80
2022/05/30 22:09:40;;;;;;;8.27;7.07;;;;;;;;;;10362168;28;20223;-79
2022/05/30 22:15:01;;;;;;;5.87;4.33;;;10.70;99.90;;;;;;10347644;28;20211;-79
2022/05/30 22:20:26;;;;;;;4.80;4.30;;;10.50;99.90;;;;;;10347232;28;20197;-79
2022/05/30 22:26:00;;;;;;;5.50;4.23;;;10.50;99.90;;;;;;10360929;28;20212;-79
2022/05/30 22:31:23;;;;;;;7.73;4.40;;;10.40;99.90;;;;;;10346963;28;20609;-79
2022/05/30 22:36:44;;;;;;;6.07;5.03;;;10.40;99.90;;;;;;10360591;28;20255;-79
2022/05/30 22:42:06;;;;;;;7.50;6.10;;;10.30;99.90;;;;;;10360349;28;20199;-79
2022/05/30 22:47:27;;;;;;;7.90;6.00;;;10.30;99.90;;;;;;10360255;28;20229;-79
2022/05/30 22:52:49;;;;;;;9.50;6.00;;;10.40;99.90;;;;;;10346565;28;20200;-80
2022/05/30 22:58:10;;;;;;;6.97;5.47;;;10.50;99.90;;;;;;10320631;28;20203;-82
2022/05/30 23:03:36;;;;;;;6.37;4.67;;;10.50;99.90;;;;;;10335000;28;20279;-83
2022/05/30 23:08:57;;;;;;;5.30;4.57;;;10.40;99.90;;;;;;10326256;28;20254;-82
2022/05/30 23:14:22;;;;;;;5.30;4.03;;;10.40;99.90;;;;;;10345119;28;20223;-83
2022/05/30 23:19:58;;;;;;;5.10;4.20;;;10.40;99.90;;;;;;10359045;28;20226;-82
2022/05/30 23:25:20;;;;;;;5.10;4.20;;;10.30;99.90;;;;;;10331511;28;20231;-81
2022/05/30 23:30:43;;;;;;;5.17;4.43;;;10.30;99.90;;;;;;10359500;28;20223;-80
2022/05/30 23:36:04;;;;;;;5.70;4.27;;;10.20;99.90;;;;;;10344577;28;20238;-83
2022/05/30 23:47:06;;;;;;;3.87;3.47;;;10.20;99.90;;;;;;10358779;28;20252;-81
2022/05/30 23:52:28;;;;;;;4.90;4.00;;;10.30;99.90;;;;;;10344362;28;20201;-81
2022/05/30 23:57:50;;;;;;;5.30;4.00;;;10.30;99.90;;;;;;10357716;28;20459;-81
